Time;durP1;ratioP1;P1;durP2;ratioP2;P2;SDS_P1;SDS_P2;PMS_P1;PMS_P2;Temp;Humidity;BMP_temperature;BMP_pressure;BME280_temperature;BME280_humidity;BME280_pressure;Samples;Min_cycle;Max_cycle;Signal;HPM_P1;HPM_P2
2023/09/13 00:00:32;;;;;;;;;;;;;;;;;;6371024;27;19942;-73
2023/09/13 00:03:32;;;;;;;;;;;;;;;;;;6351192;27;20000;-73
2023/09/13 00:06:32;;;;;;;;;;;;;;;;;;6361375;27;19994;-73
2023/09/13 00:09:33;;;;;;;;;;;;;;;;;;6367780;27;19923;-73
2023/09/13 00:12:33;;;;;;;;;;;;;;;;;;6370400;27;19923;-73
2023/09/13 00:15:33;;;;;;;;;;;;;;;;;;6366885;27;19911;-73
2023/09/13 00:18:33;;;;;;;;;;;;;;;;;;6372870;27;20724;-72
2023/09/13 00:21:33;;;;;;;;;;;;;;;;;;6370790;27;19911;-72
2023/09/13 00:24:33;;;;;;;;;;;;;;;;;;6370521;27;20420;-73
2023/09/13 00:27:33;;;;;;;;;;;;;;;;;;6370195;27;19923;-71
2023/09/13 00:30:33;;;;;;;;;;;;;;;;;;6371311;27;20014;-73
2023/09/13 00:33:33;;;;;;;;;;;;;;;;;;6359234;27;19919;-72
2023/09/13 00:36:34;;;;;;;;;;;;;;;;;;6348387;27;19958;-72
2023/09/13 00:39:34;;;;;;;;;;;;;;;;;;6366841;27;19915;-72
2023/09/13 00:42:35;;;;;;;;;;;;;;;;;;6372459;27;20362;-72
2023/09/13 00:45:35;;;;;;;;;;;;;;;;;;6363204;27;19967;-71
2023/09/13 00:48:36;;;;;;;;;;;;;;;;;;6342494;27;19916;-73
2023/09/13 00:51:36;;;;;;;;;;;;;;;;;;6357289;27;19961;-72
2023/09/13 00:54:36;;;;;;;;;;;;;;;;;;6369460;27;19970;-72
2023/09/13 00:57:36;;;;;;;;;;;;;;;;;;6363626;27;20494;-72
2023/09/13 01:00:36;;;;;;;;;;;;;;;;;;6370873;27;20435;-73
2023/09/13 01:03:36;;;;;;;;;;;;;;;;;;6372754;27;19983;-72
2023/09/13 01:06:36;;;;;;;;;;;;;;;;;;6358412;27;19912;-72
2023/09/13 01:09:37;;;;;;;;;;;;;;;;;;6371718;27;19919;-73
2023/09/13 01:12:37;;;;;;;;;;;;;;;;;;6371618;27;19923;-72
2023/09/13 01:15:37;;;;;;;;;;;;;;;;;;6365246;27;19923;-73
2023/09/13 01:18:37;;;;;;;;;;;;;;;;;;6367284;27;19911;-73
2023/09/13 01:21:37;;;;;;;;;;;;;;;;;;6367215;27;19933;-74
2023/09/13 01:24:39;;;;;;;;;;;;;;;;;;6358764;27;19934;-72
2023/09/13 01:27:39;;;;;;;;;;;;;;;;;;6341430;27;19912;-73
2023/09/13 01:30:39;;;;;;;;;;;;;;;;;;6340752;27;19969;-72
2023/09/13 01:33:40;;;;;;;;;;;;;;;;;;6367277;27;20481;-73
2023/09/13 01:36:41;;;;;;;;;;;;;;;;;;6350816;27;20004;-73
2023/09/13 01:39:41;;;;;;;;;;;;;;;;;;6360469;27;20278;-73
2023/09/13 01:42:41;;;;;;;;;;;;;;;;;;6347624;27;20349;-72
2023/09/13 01:45:41;;;;;;;;;;;;;;;;;;6331108;28;19967;-72
2023/09/13 01:48:41;;;;;;;;;;;;;;;;;;6363253;27;19912;-72
2023/09/13 01:51:41;;;;;;;;;;;;;;;;;;6365374;27;19916;-72
2023/09/13 01:54:42;;;;;;;;;;;;;;;;;;6366795;28;19946;-73
2023/09/13 01:57:42;;;;;;;;;;;;;;;;;;5988372;28;9999937;-74
2023/09/13 02:00:42;;;;;;;;;;;;;;;;;;6351060;28;20396;-73
2023/09/13 02:03:42;;;;;;;;;;;;;;;;;;6368445;28;20434;-72
2023/09/13 02:06:42;;;;;;;;;;;;;;;;;;6368722;28;20011;-72
2023/09/13 02:09:42;;;;;;;;;;;;;;;;;;6337874;28;19917;-72
2023/09/13 02:12:42;;;;;;;;;;;;;;;;;;6370634;27;19923;-72
2023/09/13 02:15:42;;;;;;;;;;;;;;;;;;6351557;27;19994;-72
2023/09/13 02:18:43;;;;;;;;;;;;;;;;;;6373319;27;19958;-72
2023/09/13 02:21:43;;;;;;;;;;;;;;;;;;6361412;27;20010;-73
2023/09/13 02:24:44;;;;;;;;;;;;;;;;;;6366958;27;20353;-72
2023/09/13 02:27:44;;;;;;;;;;;;;;;;;;6342657;27;19971;-73
2023/09/13 02:30:44;;;;;;;;;;;;;;;;;;6370248;27;19954;-72
2023/09/13 02:33:44;;;;;;;;;;;;;;;;;;6356473;27;19915;-73
2023/09/13 02:36:45;;;;;;;;;;;;;;;;;;6362400;27;19955;-72
2023/09/13 02:39:45;;;;;;;;;;;;;;;;;;6368656;27;19976;-73
2023/09/13 02:42:48;;;;;;;;;;;;;;;;;;6366861;27;19947;-72
2023/09/13 02:45:48;;;;;;;;;;;;;;;;;;6373286;27;20389;-72
2023/09/13 02:48:48;;;;;;;;;;;;;;;;;;6369015;27;19948;-74
2023/09/13 02:51:48;;;;;;;;;;;;;;;;;;6367999;27;19934;-72
2023/09/13 02:54:49;;;;;;;;;;;;;;;;;;6362356;27;19911;-72
2023/09/13 02:57:49;;;;;;;;;;;;;;;;;;6361685;27;19911;-72
2023/09/13 03:00:50;;;;;;;;;;;;;;;;;;6348675;28;19970;-72
2023/09/13 03:03:51;;;;;;;;;;;;;;;;;;6368182;27;19926;-73
2023/09/13 03:06:51;;;;;;;;;;;;;;;;;;6344936;27;19919;-72
2023/09/13 03:09:52;;;;;;;;;;;;;;;;;;6363590;27;19965;-73
2023/09/13 03:12:52;;;;;;;;;;;;;;;;;;6362278;27;20000;-73
2023/09/13 03:15:52;;;;;;;;;;;;;;;;;;6373972;27;19933;-73
2023/09/13 03:18:52;;;;;;;;;;;;;;;;;;6389596;27;20326;-73
2023/09/13 03:21:53;;;;;;;;;;;;;;;;;;6373140;27;19911;-72
2023/09/13 03:24:53;;;;;;;;;;;;;;;;;;6374767;27;19912;-73
2023/09/13 03:27:53;;;;;;;;;;;;;;;;;;6369687;27;19927;-73
2023/09/13 03:30:53;;;;;;;;;;;;;;;;;;6371375;27;19940;-73
2023/09/13 03:33:53;;;;;;;;;;;;;;;;;;6371899;27;19919;-73
2023/09/13 03:36:54;;;;;;;;;;;;;;;;;;6353021;27;20259;-73
2023/09/13 03:39:54;;;;;;;;;;;;;;;;;;6372083;27;19907;-73
2023/09/13 03:42:55;;;;;;;;;;;;;;;;;;6367452;27;19923;-73
2023/09/13 03:45:55;;;;;;;;;;;;;;;;;;6353128;27;19964;-73
2023/09/13 03:48:55;;;;;;;;;;;;;;;;;;6348049;28;20017;-72
2023/09/13 03:51:56;;;;;;;;;;;;;;;;;;6358250;27;19989;-72
2023/09/13 03:54:56;;;;;;;;;;;;;;;;;;6367078;27;20015;-73
2023/09/13 03:57:56;;;;;;;;;;;;;;;;;;6356056;27;19915;-72
2023/09/13 04:00:56;;;;;;;;;;;;;;;;;;6353585;27;19948;-73
2023/09/13 04:03:56;;;;;;;;;;;;;;;;;;6356634;27;20330;-73
2023/09/13 04:06:57;;;;;;;;;;;;;;;;;;6351112;27;20384;-73
2023/09/13 04:09:57;;;;;;;;;;;;;;;;;;6365085;27;19914;-72
2023/09/13 04:12:57;;;;;;;;;;;;;;;;;;6348847;27;20001;-72
2023/09/13 04:15:57;;;;;;;;;;;;;;;;;;6367918;27;20319;-72
2023/09/13 04:18:57;;;;;;;;;;;;;;;;;;6369628;27;19911;-73
2023/09/13 04:21:57;;;;;;;;;;;;;;;;;;6359615;27;19915;-73
2023/09/13 04:24:57;;;;;;;;;;;;;;;;;;6368095;27;20419;-73
2023/09/13 04:27:57;;;;;;;;;;;;;;;;;;6350209;27;19907;-73
2023/09/13 04:30:58;;;;;;;;;;;;;;;;;;6364375;27;19919;-73
2023/09/13 04:33:58;;;;;;;;;;;;;;;;;;6356853;27;19911;-73
2023/09/13 04:36:58;;;;;;;;;;;;;;;;;;6363732;27;19915;-73
2023/09/13 04:39:58;;;;;;;;;;;;;;;;;;6346615;27;19944;-72
2023/09/13 04:42:59;;;;;;;;;;;;;;;;;;6364398;27;19915;-73
2023/09/13 04:45:59;;;;;;;;;;;;;;;;;;6356832;27;20306;-72
2023/09/13 04:48:59;;;;;;;;;;;;;;;;;;6363805;27;20375;-72
2023/09/13 04:52:00;;;;;;;;;;;;;;;;;;6353272;27;20353;-71
2023/09/13 04:55:00;;;;;;;;;;;;;;;;;;6359358;27;20006;-72
2023/09/13 04:58:00;;;;;;;;;;;;;;;;;;6354806;27;20447;-73
2023/09/13 05:01:00;;;;;;;;;;;;;;;;;;6366869;27;19926;-73
2023/09/13 05:04:01;;;;;;;;;;;;;;;;;;6362222;27;19911;-72
2023/09/13 05:07:01;;;;;;;;;;;;;;;;;;6371474;27;19908;-73
2023/09/13 05:10:01;;;;;;;;;;;;;;;;;;6370798;27;19919;-72
2023/09/13 05:13:01;;;;;;;;;;;;;;;;;;6371381;27;19917;-73
2023/09/13 05:16:02;;;;;;;;;;;;;;;;;;6364187;27;19915;-73
2023/09/13 05:19:02;;;;;;;;;;;;;;;;;;6353743;27;19959;-73
2023/09/13 05:22:02;;;;;;;;;;;;;;;;;;6346481;27;19946;-73
2023/09/13 05:25:02;;;;;;;;;;;;;;;;;;6360324;27;20558;-73
2023/09/13 05:28:03;;;;;;;;;;;;;;;;;;6358111;27;19915;-76
2023/09/13 05:31:03;;;;;;;;;;;;;;;;;;6352223;27;19917;-77
2023/09/13 05:34:03;;;;;;;;;;;;;;;;;;6351388;27;19923;-76
2023/09/13 05:37:03;;;;;;;;;;;;;;;;;;6355721;27;20080;-76
2023/09/13 05:40:06;;;;;;;;;;;;;;;;;;6355105;27;19937;-76
2023/09/13 05:43:06;;;;;;;;;;;;;;;;;;6340130;27;19915;-75
2023/09/13 05:46:07;;;;;;;;;;;;;;;;;;6363572;27;19937;-76
2023/09/13 05:49:07;;;;;;;;;;;;;;;;;;6353371;27;19920;-75
2023/09/13 05:52:09;;;;;;;;;;;;;;;;;;6354807;27;20809;-78
2023/09/13 05:55:09;;;;;;;;;;;;;;;;;;6355115;28;20340;-76
2023/09/13 05:58:09;;;;;;;;;;;;;;;;;;6352862;28;19920;-76
2023/09/13 06:01:10;;;;;;;;;;;;;;;;;;6354762;28;19927;-75
2023/09/13 06:04:10;;;;;;;;;;;;;;;;;;6351198;28;20086;-76
2023/09/13 06:07:11;;;;;;;;;;;;;;;;;;6347556;28;19911;-76
2023/09/13 06:10:12;;;;;;;;;;;;;;;;;;6355834;28;20381;-76
2023/09/13 06:13:12;;;;;;;;;;;;;;;;;;6354770;28;19920;-76
2023/09/13 06:16:12;;;;;;;;;;;;;;;;;;6355810;28;19961;-76
2023/09/13 06:19:12;;;;;;;;;;;;;;;;;;6357557;28;19915;-75
2023/09/13 06:22:13;;;;;;;;;;;;;;;;;;6335003;28;19916;-80
2023/09/13 06:25:16;;;;;;;;;;;;;;;;;;6358143;28;20393;-76
2023/09/13 06:28:16;;;;;;;;;;;;;;;;;;6342212;28;20280;-75
2023/09/13 06:31:17;;;;;;;;;;;;;;;;;;6353712;28;20377;-75
2023/09/13 06:34:17;;;;;;;;;;;;;;;;;;6351108;28;19927;-74
2023/09/13 06:37:17;;;;;;;;;;;;;;;;;;6336999;28;19915;-75
2023/09/13 06:40:17;;;;;;;;;;;;;;;;;;6350920;28;19921;-74
2023/09/13 06:43:21;;;;;;;;;;;;;;;;;;6355029;28;20093;-74
2023/09/13 06:46:21;;;;;;;;;;;;;;;;;;6351526;28;20698;-74
2023/09/13 06:49:21;;;;;;;;;;;;;;;;;;6351883;28;19951;-74
2023/09/13 06:52:21;;;;;;;;;;;;;;;;;;6336803;28;19994;-74
2023/09/13 06:55:21;;;;;;;;;;;;;;;;;;6338731;28;20006;-75
2023/09/13 06:58:21;;;;;;;;;;;;;;;;;;6370137;28;19911;-75
2023/09/13 07:01:21;;;;;;;;;;;;;;;;;;6366663;27;19923;-75
2023/09/13 07:04:22;;;;;;;;;;;;;;;;;;6360368;27;20368;-75
2023/09/13 07:07:22;;;;;;;;;;;;;;;;;;6339455;28;19990;-74
2023/09/13 07:10:22;;;;;;;;;;;;;;;;;;6365629;27;20369;-74
2023/09/13 07:13:22;;;;;;;;;;;;;;;;;;6366032;27;20171;-74
2023/09/13 07:16:23;;;;;;;;;;;;;;;;;;6352566;27;19915;-74
2023/09/13 07:19:23;;;;;;;;;;;;;;;;;;6358716;27;20104;-75
2023/09/13 07:22:23;;;;;;;;;;;;;;;;;;6360200;27;19919;-76
2023/09/13 07:25:23;;;;;;;;;;;;;;;;;;6357665;27;19916;-75
2023/09/13 07:28:23;;;;;;;;;;;;;;;;;;6350552;27;19930;-76
2023/09/13 07:31:23;;;;;;;;;;;;;;;;;;6356915;27;19916;-75
2023/09/13 07:34:23;;;;;;;;;;;;;;;;;;6365828;27;19919;-75
2023/09/13 07:37:26;;;;;;;;;;;;;;;;;;6373340;27;19945;-76
2023/09/13 07:40:26;;;;;;;;;;;;;;;;;;6373277;27;19956;-76
2023/09/13 07:43:27;;;;;;;;;;;;;;;;;;6368772;27;19943;-76
2023/09/13 07:46:27;;;;;;;;;;;;;;;;;;6372244;27;19960;-76
2023/09/13 07:49:27;;;;;;;;;;;;;;;;;;6369870;27;20014;-76
2023/09/13 07:52:27;;;;;;;;;;;;;;;;;;6370826;27;19925;-75
2023/09/13 07:55:27;;;;;;;;;;;;;;;;;;6372583;27;19915;-75
2023/09/13 07:58:27;;;;;;;;;;;;;;;;;;6372375;27;19923;-75
2023/09/13 08:01:28;;;;;;;;;;;;;;;;;;6343800;27;19935;-75
2023/09/13 08:04:29;;;;;;;;;;;;;;;;;;6373603;27;20297;-75
2023/09/13 08:07:29;;;;;;;;;;;;;;;;;;6373542;27;19915;-75
2023/09/13 08:10:29;;;;;;;;;;;;;;;;;;6344328;27;19926;-75
2023/09/13 08:13:29;;;;;;;;;;;;;;;;;;6344000;27;19924;-75
2023/09/13 08:16:29;;;;;;;;;;;;;;;;;;6352946;27;20015;-75
2023/09/13 08:19:29;;;;;;;;;;;;;;;;;;6362759;27;20319;-75
2023/09/13 08:22:29;;;;;;;;;;;;;;;;;;6367472;27;19966;-75
2023/09/13 08:25:30;;;;;;;;;;;;;;;;;;5995425;27;10000553;-75
2023/09/13 08:28:30;;;;;;;;;;;;;;;;;;6364620;27;20288;-75
2023/09/13 08:31:30;;;;;;;;;;;;;;;;;;6358917;27;19915;-75
2023/09/13 08:34:30;;;;;;;;;;;;;;;;;;6370622;27;19922;-75
2023/09/13 08:37:30;;;;;;;;;;;;;;;;;;6348959;27;20277;-75
2023/09/13 08:40:30;;;;;;;;;;;;;;;;;;6358799;27;19922;-76
2023/09/13 08:43:31;;;;;;;;;;;;;;;;;;6360887;27;19912;-75
2023/09/13 08:46:31;;;;;;;;;;;;;;;;;;6334476;28;19912;-76
2023/09/13 08:49:31;;;;;;;;;;;;;;;;;;6344320;27;19915;-76
2023/09/13 08:52:31;;;;;;;;;;;;;;;;;;6370014;27;19911;-75
2023/09/13 08:55:31;;;;;;;;;;;;;;;;;;6370649;27;19953;-76
2023/09/13 08:58:31;;;;;;;;;;;;;;;;;;6363575;27;20005;-76
2023/09/13 09:01:32;;;;;;;;;;;;;;;;;;6365561;27;19923;-75
2023/09/13 09:04:32;;;;;;;;;;;;;;;;;;6364559;27;20456;-75
2023/09/13 09:07:33;;;;;;;;;;;;;;;;;;6362785;27;20018;-75
2023/09/13 09:10:33;;;;;;;;;;;;;;;;;;6369133;27;20002;-75
2023/09/13 09:13:33;;;;;;;;;;;;;;;;;;6366002;27;20009;-75
2023/09/13 09:16:33;;;;;;;;;;;;;;;;;;6352093;27;20330;-76
2023/09/13 09:19:34;;;;;;;;;;;;;;;;;;6335368;28;19915;-76
2023/09/13 09:22:34;;;;;;;;;;;;;;;;;;6344015;27;19920;-77
2023/09/13 09:25:34;;;;;;;;;;;;;;;;;;6325728;28;20374;-77
2023/09/13 09:28:34;;;;;;;;;;;;;;;;;;6358219;27;19916;-77
2023/09/13 09:31:34;;;;;;;;;;;;;;;;;;6365912;27;19923;-76
2023/09/13 09:34:35;;;;;;;;;;;;;;;;;;6355987;27;19922;-76
2023/09/13 09:37:36;;;;;;;;;;;;;;;;;;6364270;27;20664;-79
2023/09/13 09:40:36;;;;;;;;;;;;;;;;;;6349705;27;19946;-77
2023/09/13 09:43:36;;;;;;;;;;;;;;;;;;6368109;27;19916;-77
2023/09/13 09:46:37;;;;;;;;;;;;;;;;;;6367777;27;19907;-76
2023/09/13 09:49:37;;;;;;;;;;;;;;;;;;6367155;27;19915;-77
2023/09/13 09:52:37;;;;;;;;;;;;;;;;;;6348182;27;19920;-77
2023/09/13 09:55:37;;;;;;;;;;;;;;;;;;6360951;28;19916;-76
2023/09/13 09:58:38;;;;;;;;;;;;;;;;;;6015791;28;10000313;-77
2023/09/13 10:01:38;;;;;;;;;;;;;;;;;;6352844;28;19923;-76
2023/09/13 10:04:38;;;;;;;;;;;;;;;;;;6372160;28;20342;-75
2023/09/13 10:07:40;;;;;;;;;;;;;;;;;;6372244;28;19935;-76
2023/09/13 10:10:41;;;;;;;;;;;;;;;;;;6372756;28;20007;-77
2023/09/13 10:13:41;;;;;;;;;;;;;;;;;;6373774;28;19926;-77
2023/09/13 10:16:41;;;;;;;;;;;;;;;;;;6369828;28;20459;-76
2023/09/13 10:19:41;;;;;;;;;;;;;;;;;;6351603;28;19991;-77
2023/09/13 10:22:41;;;;;;;;;;;;;;;;;;6368965;28;19914;-77
2023/09/13 10:25:41;;;;;;;;;;;;;;;;;;6369029;28;19954;-77
2023/09/13 10:28:41;;;;;;;;;;;;;;;;;;6369098;28;20024;-76
2023/09/13 10:31:42;;;;;;;;;;;;;;;;;;6367784;28;19912;-78
2023/09/13 10:34:42;;;;;;;;;;;;;;;;;;6367951;27;19922;-76
2023/09/13 10:37:42;;;;;;;;;;;;;;;;;;6354825;27;19908;-77
2023/09/13 10:40:43;;;;;;;;;;;;;;;;;;6365422;27;19999;-77
2023/09/13 10:43:43;;;;;;;;;;;;;;;;;;6349172;27;19968;-76
2023/09/13 10:46:43;;;;;;;;;;;;;;;;;;6371657;27;19938;-75
2023/09/13 10:49:43;;;;;;;;;;;;;;;;;;6369974;27;20640;-77
2023/09/13 10:52:44;;;;;;;;;;;;;;;;;;6372683;27;19922;-77
2023/09/13 10:55:44;;;;;;;;;;;;;;;;;;6348776;27;19920;-76
2023/09/13 10:58:45;;;;;;;;;;;;;;;;;;6352500;27;19934;-76
2023/09/13 11:01:48;;;;;;;;;;;;;;;;;;6370474;27;19919;-76
2023/09/13 11:04:48;;;;;;;;;;;;;;;;;;6370836;27;19937;-76
2023/09/13 11:07:49;;;;;;;;;;;;;;;;;;6359949;27;19912;-76
2023/09/13 11:10:49;;;;;;;;;;;;;;;;;;6360811;27;20053;-76
2023/09/13 11:13:52;;;;;;;;;;;;;;;;;;6351741;27;19927;-76
2023/09/13 11:16:52;;;;;;;;;;;;;;;;;;6360496;27;19911;-77
2023/09/13 11:19:52;;;;;;;;;;;;;;;;;;6346561;28;19907;-76
2023/09/13 11:22:52;;;;;;;;;;;;;;;;;;6346239;28;19957;-76
2023/09/13 11:25:53;;;;;;;;;;;;;;;;;;6327471;28;19916;-76
2023/09/13 11:28:54;;;;;;;;;;;;;;;;;;6354313;27;19972;-75
2023/09/13 11:31:54;;;;;;;;;;;;;;;;;;6370638;27;19938;-77
2023/09/13 11:34:54;;;;;;;;;;;;;;;;;;6368820;27;20879;-76
2023/09/13 11:37:54;;;;;;;;;;;;;;;;;;6371789;27;19911;-77
2023/09/13 11:40:57;;;;;;;;;;;;;;;;;;6368896;27;19956;-77
2023/09/13 11:43:58;;;;;;;;;;;;;;;;;;6366816;27;20418;-77
2023/09/13 11:46:58;;;;;;;;;;;;;;;;;;6370053;27;19912;-77
2023/09/13 11:50:00;;;;;;;;;;;;;;;;;;6371603;27;19911;-77
2023/09/13 11:53:00;;;;;;;;;;;;;;;;;;6371649;27;19915;-77
2023/09/13 11:56:02;;;;;;;;;;;;;;;;;;6352457;27;20034;-78
2023/09/13 11:59:02;;;;;;;;;;;;;;;;;;6346554;28;19919;-77
2023/09/13 12:02:03;;;;;;;;;;;;;;;;;;6352121;27;20006;-77
2023/09/13 12:05:03;;;;;;;;;;;;;;;;;;6370981;27;19911;-78
2023/09/13 12:08:03;;;;;;;;;;;;;;;;;;6370808;27;19951;-79
2023/09/13 12:11:04;;;;;;;;;;;;;;;;;;6353272;27;19912;-79
2023/09/13 12:14:04;;;;;;;;;;;;;;;;;;6345530;28;20360;-76
2023/09/13 12:17:04;;;;;;;;;;;;;;;;;;6366003;27;19933;-75
2023/09/13 12:20:08;;;;;;;;;;;;;;;;;;6371384;27;19933;-75
2023/09/13 12:23:10;;;;;;;;;;;;;;;;;;6373988;27;19933;-77
2023/09/13 12:26:11;;;;;;;;;;;;;;;;;;6375540;27;20044;-78
2023/09/13 12:29:11;;;;;;;;;;;;;;;;;;6374307;27;19912;-76
2023/09/13 12:32:12;;;;;;;;;;;;;;;;;;6372924;27;19915;-76
2023/09/13 12:35:12;;;;;;;;;;;;;;;;;;6368725;27;19915;-77
2023/09/13 12:38:12;;;;;;;;;;;;;;;;;;6370767;27;20400;-77
2023/09/13 12:41:12;;;;;;;;;;;;;;;;;;6369492;27;19911;-77
2023/09/13 12:44:12;;;;;;;;;;;;;;;;;;6362046;27;20003;-77
2023/09/13 12:47:12;;;;;;;;;;;;;;;;;;6352986;27;19914;-78
2023/09/13 12:50:14;;;;;;;;;;;;;;;;;;6369360;27;19916;-78
2023/09/13 12:53:18;;;;;;;;;;;;;;;;;;6365554;27;19919;-77
2023/09/13 12:56:18;;;;;;;;;;;;;;;;;;6354423;27;19915;-78
2023/09/13 12:59:18;;;;;;;;;;;;;;;;;;6369373;27;19918;-77
2023/09/13 13:02:18;;;;;;;;;;;;;;;;;;6370794;27;19927;-77
2023/09/13 13:05:19;;;;;;;;;;;;;;;;;;6369472;27;19980;-78
2023/09/13 13:08:20;;;;;;;;;;;;;;;;;;6369877;27;19989;-78
2023/09/13 13:11:20;;;;;;;;;;;;;;;;;;6367977;27;19919;-77
2023/09/13 13:14:20;;;;;;;;;;;;;;;;;;6367096;27;19940;-77
2023/09/13 13:17:21;;;;;;;;;;;;;;;;;;6350880;27;19912;-77
2023/09/13 13:20:21;;;;;;;;;;;;;;;;;;6351221;27;20274;-77
2023/09/13 13:23:23;;;;;;;;;;;;;;;;;;6378041;27;19903;-75
2023/09/13 13:26:24;;;;;;;;;;;;;;;;;;6360612;28;19934;-75
2023/09/13 13:29:24;;;;;;;;;;;;;;;;;;6365782;27;19922;-77
2023/09/13 13:32:26;;;;;;;;;;;;;;;;;;6392972;27;20348;-78
2023/09/13 13:35:26;;;;;;;;;;;;;;;;;;6386529;27;19919;-77
2023/09/13 13:38:26;;;;;;;;;;;;;;;;;;6374120;27;19912;-78
2023/09/13 13:41:26;;;;;;;;;;;;;;;;;;6373799;27;20371;-78
2023/09/13 13:44:27;;;;;;;;;;;;;;;;;;6378095;27;20305;-77
2023/09/13 13:47:29;;;;;;;;;;;;;;;;;;6377851;27;20003;-78
2023/09/13 13:50:29;;;;;;;;;;;;;;;;;;6382932;27;19916;-77
2023/09/13 13:53:29;;;;;;;;;;;;;;;;;;6366828;27;19947;-78
2023/09/13 13:56:30;;;;;;;;;;;;;;;;;;6379997;27;19943;-75
2023/09/13 13:59:30;;;;;;;;;;;;;;;;;;6354893;28;19990;-74
2023/09/13 14:02:36;;;;;;;;;;;;;;;;;;6372844;28;19930;-74
2023/09/13 14:05:39;;;;;;;;;;;;;;;;;;6359062;28;19915;-74
2023/09/13 14:08:40;;;;;;;;;;;;;;;;;;6348666;27;19926;-73
2023/09/13 14:11:41;;;;;;;;;;;;;;;;;;6381737;27;19956;-73
2023/09/13 14:14:41;;;;;;;;;;;;;;;;;;6384868;27;19915;-73
2023/09/13 14:17:41;;;;;;;;;;;;;;;;;;6397935;27;19926;-74
2023/09/13 14:20:42;;;;;;;;;;;;;;;;;;6387731;27;19919;-73
2023/09/13 14:23:42;;;;;;;;;;;;;;;;;;6377217;27;19916;-71
2023/09/13 14:26:43;;;;;;;;;;;;;;;;;;6376958;27;19999;-72
2023/09/13 14:29:43;;;;;;;;;;;;;;;;;;6374764;27;19917;-73
2023/09/13 14:32:45;;;;;;;;;;;;;;;;;;6360444;27;20331;-72
2023/09/13 14:35:46;;;;;;;;;;;;;;;;;;6365669;27;20426;-73
2023/09/13 14:38:46;;;;;;;;;;;;;;;;;;6355198;27;19912;-72
2023/09/13 14:41:51;;;;;;;;;;;;;;;;;;6371382;27;19951;-73
2023/09/13 14:44:51;;;;;;;;;;;;;;;;;;6372229;27;19919;-72
2023/09/13 14:47:51;;;;;;;;;;;;;;;;;;6370860;27;19916;-72
2023/09/13 14:50:52;;;;;;;;;;;;;;;;;;6370961;27;19972;-72
2023/09/13 14:53:52;;;;;;;;;;;;;;;;;;6373458;27;19961;-73
2023/09/13 14:56:52;;;;;;;;;;;;;;;;;;6372707;27;20006;-73
2023/09/13 14:59:52;;;;;;;;;;;;;;;;;;6371528;27;20014;-73
2023/09/13 15:02:52;;;;;;;;;;;;;;;;;;6358598;27;19924;-73
2023/09/13 15:05:53;;;;;;;;;;;;;;;;;;6348752;28;19965;-72
2023/09/13 15:08:53;;;;;;;;;;;;;;;;;;6359849;27;19957;-72
2023/09/13 15:11:53;;;;;;;;;;;;;;;;;;6374140;27;21813;-72
2023/09/13 15:14:53;;;;;;;;;;;;;;;;;;6368852;27;19911;-73
2023/09/13 15:17:54;;;;;;;;;;;;;;;;;;6371632;27;19922;-73
2023/09/13 15:20:54;;;;;;;;;;;;;;;;;;6356467;27;20433;-75
2023/09/13 15:23:54;;;;;;;;;;;;;;;;;;6356219;27;19968;-73
2023/09/13 15:26:54;;;;;;;;;;;;;;;;;;6373445;27;20344;-73
2023/09/13 15:29:54;;;;;;;;;;;;;;;;;;6354214;27;20329;-73
2023/09/13 15:32:54;;;;;;;;;;;;;;;;;;6331938;28;19968;-73
2023/09/13 15:35:55;;;;;;;;;;;;;;;;;;6352325;27;19947;-74
2023/09/13 15:38:55;;;;;;;;;;;;;;;;;;6375882;27;19930;-73
2023/09/13 15:41:56;;;;;;;;;;;;;;;;;;6356637;27;20376;-74
2023/09/13 15:44:56;;;;;;;;;;;;;;;;;;6347964;28;19908;-74
2023/09/13 15:47:56;;;;;;;;;;;;;;;;;;6355332;27;19918;-74
2023/09/13 15:50:57;;;;;;;;;;;;;;;;;;6375128;27;19932;-74
2023/09/13 15:53:57;;;;;;;;;;;;;;;;;;6369725;27;19927;-74
2023/09/13 15:56:57;;;;;;;;;;;;;;;;;;6375964;27;20330;-74
2023/09/13 15:59:57;;;;;;;;;;;;;;;;;;6373548;27;19907;-74
2023/09/13 16:02:57;;;;;;;;;;;;;;;;;;6338200;28;19977;-73
2023/09/13 16:05:57;;;;;;;;;;;;;;;;;;6364110;27;19914;-73
2023/09/13 16:08:57;;;;;;;;;;;;;;;;;;6364548;27;19955;-74
2023/09/13 16:11:57;;;;;;;;;;;;;;;;;;6372875;27;20279;-73
2023/09/13 16:14:58;;;;;;;;;;;;;;;;;;6365446;27;20497;-73
2023/09/13 16:17:58;;;;;;;;;;;;;;;;;;6331031;28;20322;-78
2023/09/13 16:20:58;;;;;;;;;;;;;;;;;;6351848;27;19915;-78
2023/09/13 16:23:58;;;;;;;;;;;;;;;;;;6377228;27;19911;-76
2023/09/13 16:26:58;;;;;;;;;;;;;;;;;;6377084;27;19907;-76
2023/09/13 16:29:58;;;;;;;;;;;;;;;;;;6373965;27;20375;-76
2023/09/13 16:32:58;;;;;;;;;;;;;;;;;;6367176;27;19923;-77
2023/09/13 16:35:59;;;;;;;;;;;;;;;;;;6375496;27;19960;-77
2023/09/13 16:38:59;;;;;;;;;;;;;;;;;;6356673;27;19945;-76
2023/09/13 16:41:59;;;;;;;;;;;;;;;;;;6366035;27;19985;-73
2023/09/13 16:44:59;;;;;;;;;;;;;;;;;;6371287;27;19915;-71
2023/09/13 16:48:02;;;;;;;;;;;;;;;;;;6372078;27;19949;-72
2023/09/13 16:51:02;;;;;;;;;;;;;;;;;;6374214;27;19958;-71
2023/09/13 16:54:04;;;;;;;;;;;;;;;;;;6372411;27;19920;-71
2023/09/13 16:57:04;;;;;;;;;;;;;;;;;;6359685;27;19956;-72
2023/09/13 17:00:04;;;;;;;;;;;;;;;;;;6353772;27;19973;-75
2023/09/13 17:03:04;;;;;;;;;;;;;;;;;;6360526;27;19942;-73
2023/09/13 17:06:05;;;;;;;;;;;;;;;;;;6373441;27;19914;-72
2023/09/13 17:09:05;;;;;;;;;;;;;;;;;;6013237;27;9999678;-73
2023/09/13 17:12:07;;;;;;;;;;;;;;;;;;6359628;27;19987;-72
2023/09/13 17:15:07;;;;;;;;;;;;;;;;;;6360455;27;19937;-73
2023/09/13 17:18:07;;;;;;;;;;;;;;;;;;6349136;27;19915;-73
2023/09/13 17:21:07;;;;;;;;;;;;;;;;;;6354765;27;19911;-72
2023/09/13 17:24:08;;;;;;;;;;;;;;;;;;6360609;27;19923;-72
2023/09/13 17:27:08;;;;;;;;;;;;;;;;;;6364781;27;19968;-72
2023/09/13 17:30:08;;;;;;;;;;;;;;;;;;6365563;27;20006;-72
2023/09/13 17:33:08;;;;;;;;;;;;;;;;;;6358782;27;19916;-72
2023/09/13 17:36:08;;;;;;;;;;;;;;;;;;6347942;28;19908;-73
2023/09/13 17:39:09;;;;;;;;;;;;;;;;;;6361061;27;19912;-73
2023/09/13 17:42:09;;;;;;;;;;;;;;;;;;6371446;27;20345;-73
2023/09/13 17:45:09;;;;;;;;;;;;;;;;;;6358586;27;19915;-73
2023/09/13 17:48:11;;;;;;;;;;;;;;;;;;6363346;27;19911;-73
2023/09/13 17:51:11;;;;;;;;;;;;;;;;;;6365710;27;19935;-73
2023/09/13 17:54:11;;;;;;;;;;;;;;;;;;6367697;27;19971;-73
2023/09/13 17:57:12;;;;;;;;;;;;;;;;;;6372107;27;19923;-73
2023/09/13 18:00:12;;;;;;;;;;;;;;;;;;6352095;28;19934;-73
2023/09/13 18:03:12;;;;;;;;;;;;;;;;;;6363503;28;20297;-73
2023/09/13 18:06:13;;;;;;;;;;;;;;;;;;6365355;27;19911;-73
2023/09/13 18:09:13;;;;;;;;;;;;;;;;;;6368033;28;19946;-73
2023/09/13 18:12:13;;;;;;;;;;;;;;;;;;6367315;28;19954;-72
2023/09/13 18:15:14;;;;;;;;;;;;;;;;;;6361395;28;19930;-73
2023/09/13 18:18:14;;;;;;;;;;;;;;;;;;6363350;28;19908;-72
2023/09/13 18:21:15;;;;;;;;;;;;;;;;;;6354741;28;19911;-72
2023/09/13 18:24:15;;;;;;;;;;;;;;;;;;6356863;28;19957;-72
2023/09/13 18:27:15;;;;;;;;;;;;;;;;;;6354201;28;20334;-73
2023/09/13 18:30:15;;;;;;;;;;;;;;;;;;6360780;28;19918;-73
2023/09/13 18:33:15;;;;;;;;;;;;;;;;;;6370581;28;19918;-72
2023/09/13 18:36:15;;;;;;;;;;;;;;;;;;6367371;28;20010;-72
2023/09/13 18:39:15;;;;;;;;;;;;;;;;;;6369296;28;19960;-72
2023/09/13 18:42:16;;;;;;;;;;;;;;;;;;6370440;28;19916;-72
2023/09/13 18:45:16;;;;;;;;;;;;;;;;;;6014339;28;10000114;-72
2023/09/13 18:48:16;;;;;;;;;;;;;;;;;;6360536;27;20404;-72
2023/09/13 18:51:16;;;;;;;;;;;;;;;;;;6368463;28;19915;-73
2023/09/13 18:54:16;;;;;;;;;;;;;;;;;;6354723;28;19971;-72
2023/09/13 18:57:17;;;;;;;;;;;;;;;;;;6362079;27;19909;-72
2023/09/13 19:00:17;;;;;;;;;;;;;;;;;;6359134;27;20349;-72
2023/09/13 19:03:17;;;;;;;;;;;;;;;;;;6368960;27;20064;-72
2023/09/13 19:06:17;;;;;;;;;;;;;;;;;;6372761;27;19915;-73
2023/09/13 19:09:18;;;;;;;;;;;;;;;;;;6372590;27;19919;-72
2023/09/13 19:12:19;;;;;;;;;;;;;;;;;;6368509;27;19962;-72
2023/09/13 19:15:19;;;;;;;;;;;;;;;;;;6364403;27;19922;-73
2023/09/13 19:18:19;;;;;;;;;;;;;;;;;;6345292;27;20025;-73
2023/09/13 19:21:19;;;;;;;;;;;;;;;;;;6360498;27;20337;-72
2023/09/13 19:24:19;;;;;;;;;;;;;;;;;;6358782;27;20365;-72
2023/09/13 19:27:20;;;;;;;;;;;;;;;;;;6358687;27;19922;-72
2023/09/13 19:30:21;;;;;;;;;;;;;;;;;;6337338;27;19937;-73
2023/09/13 19:33:23;;;;;;;;;;;;;;;;;;6351792;27;19963;-72
2023/09/13 19:36:24;;;;;;;;;;;;;;;;;;6352418;27;20008;-72
2023/09/13 19:39:24;;;;;;;;;;;;;;;;;;6355959;27;19919;-73
2023/09/13 19:42:24;;;;;;;;;;;;;;;;;;6354467;27;19919;-72
2023/09/13 19:45:24;;;;;;;;;;;;;;;;;;6353618;27;20351;-73
2023/09/13 19:48:24;;;;;;;;;;;;;;;;;;6353288;27;19919;-72
2023/09/13 19:51:24;;;;;;;;;;;;;;;;;;6362529;27;20375;-73
2023/09/13 19:54:24;;;;;;;;;;;;;;;;;;6351058;27;19919;-74
2023/09/13 19:57:25;;;;;;;;;;;;;;;;;;6371161;27;19923;-74
2023/09/13 20:00:29;;;;;;;;;;;;;;;;;;6353105;27;19912;-72
2023/09/13 20:03:29;;;;;;;;;;;;;;;;;;6363410;27;20021;-72
2023/09/13 20:06:33;;;;;;;;;;;;;;;;;;6335771;27;19919;-73
2023/09/13 20:09:33;;;;;;;;;;;;;;;;;;6359581;27;19991;-73
2023/09/13 20:12:33;;;;;;;;;;;;;;;;;;6363879;27;20026;-73
2023/09/13 20:15:34;;;;;;;;;;;;;;;;;;6366212;27;19969;-75
2023/09/13 20:18:34;;;;;;;;;;;;;;;;;;6353361;27;20288;-72
2023/09/13 20:21:34;;;;;;;;;;;;;;;;;;6354575;27;19916;-74
2023/09/13 20:24:34;;;;;;;;;;;;;;;;;;6351526;27;19922;-73
2023/09/13 20:27:34;;;;;;;;;;;;;;;;;;6348928;27;19919;-73